createdAt,value
2022-12-14T04:47:32.529Z,-1.50
2022-12-14T04:50:25.938Z,-1.40
2022-12-14T04:52:57.893Z,-1.40
2022-12-14T04:55:38.904Z,-1.40
2022-12-14T04:58:09.968Z,-1.40
2022-12-14T05:00:44.855Z,-1.40
2022-12-14T05:03:28.412Z,-1.30
2022-12-14T05:06:13.651Z,-1.30
2022-12-14T05:08:55.659Z,-1.40
2022-12-14T05:11:54.964Z,-1.40
2022-12-14T05:14:57.340Z,-1.40
2022-12-14T05:17:24.023Z,-1.50
2022-12-14T05:19:51.368Z,-1.50
2022-12-14T05:22:18.463Z,-1.50
2022-12-14T05:24:45.135Z,-1.50
2022-12-14T05:27:11.885Z,-1.40
2022-12-14T05:29:38.559Z,-1.40
2022-12-14T05:32:05.403Z,-1.50
2022-12-14T05:34:32.551Z,-1.60
2022-12-14T05:36:59.256Z,-1.60
2022-12-14T05:39:25.934Z,-1.60
2022-12-14T05:41:53.450Z,-1.60
2022-12-14T05:44:20.503Z,-1.60
2022-12-14T05:46:47.414Z,-1.60
2022-12-14T05:49:14.040Z,-1.50
2022-12-14T05:51:41.554Z,-1.50
2022-12-14T05:54:08.190Z,-1.50
2022-12-14T05:56:34.862Z,-1.60
2022-12-14T05:59:02.533Z,-1.50
2022-12-14T06:01:29.311Z,-1.50
2022-12-14T06:03:56.322Z,-1.50
2022-12-14T06:06:22.991Z,-1.50
2022-12-14T06:08:49.620Z,-1.50
2022-12-14T06:11:19.288Z,-1.50
2022-12-14T06:13:46.439Z,-1.50
2022-12-14T06:16:13.251Z,-1.50
2022-12-14T06:18:48.940Z,-1.50
2022-12-14T06:21:17.645Z,-1.40
2022-12-14T06:23:44.890Z,-1.30
2022-12-14T06:26:12.625Z,-1.30
2022-12-14T06:28:39.672Z,-1.20
2022-12-14T06:31:07.772Z,-1.10
2022-12-14T06:33:35.125Z,-1.20
2022-12-14T06:36:03.159Z,-1.20
2022-12-14T06:38:30.103Z,-1.10
2022-12-14T06:40:56.725Z,-1.10
2022-12-14T06:43:27.097Z,-1.10
2022-12-14T06:45:54.646Z,-1.10
2022-12-14T06:48:21.398Z,-1.00
2022-12-14T06:50:48.085Z,-1.00
2022-12-14T06:53:14.794Z,-0.90
2022-12-14T06:55:41.467Z,-0.90
2022-12-14T06:58:12.976Z,-0.90
2022-12-14T07:00:39.660Z,-0.90
2022-12-14T07:03:06.484Z,-0.90
2022-12-14T07:05:33.346Z,-0.90
2022-12-14T07:08:00.051Z,-0.90
2022-12-14T07:10:26.750Z,-0.90
2022-12-14T07:12:53.515Z,-0.90
2022-12-14T07:15:20.151Z,-0.80
2022-12-14T07:17:46.871Z,-0.80
2022-12-14T07:20:14.289Z,-0.80
2022-12-14T07:22:40.974Z,-0.80
2022-12-14T07:25:08.642Z,-0.80
2022-12-14T07:27:35.349Z,-0.90
2022-12-14T07:30:02.060Z,-0.90
2022-12-14T07:32:28.725Z,-0.90
2022-12-14T07:34:55.329Z,-0.80
2022-12-14T07:37:22.010Z,-0.80
2022-12-14T07:39:48.651Z,-0.80
2022-12-14T07:42:15.278Z,-0.70
2022-12-14T07:44:41.986Z,-0.70
2022-12-14T07:47:12.465Z,-0.70
2022-12-14T07:49:41.768Z,-0.70
2022-12-14T07:52:08.419Z,-0.70
2022-12-14T07:54:45.128Z,-0.70
2022-12-14T07:57:11.882Z,-0.60
2022-12-14T07:59:38.526Z,-0.60
2022-12-14T08:02:05.276Z,-0.50
2022-12-14T08:04:34.616Z,-0.50
2022-12-14T08:07:01.337Z,-0.40
2022-12-14T08:09:28.016Z,-0.40
2022-12-14T08:11:54.696Z,-0.30
2022-12-14T08:14:21.467Z,-0.30
2022-12-14T08:16:49.569Z,-0.30
2022-12-14T08:19:17.499Z,-0.30
2022-12-14T08:21:45.767Z,-0.30
2022-12-14T08:24:13.836Z,-0.30
2022-12-14T08:26:40.723Z,-0.30
2022-12-14T08:29:07.374Z,-0.30
2022-12-14T08:31:34.426Z,-0.20
2022-12-14T08:34:02.039Z,-0.20
2022-12-14T08:36:34.215Z,-0.10
2022-12-14T08:39:04.848Z,-0.10
2022-12-14T08:41:32.062Z,-0.10
2022-12-14T08:44:00.784Z,-0.10
2022-12-14T08:46:30.346Z,-0.20
2022-12-14T08:48:58.598Z,-0.10
2022-12-14T08:51:26.638Z,0.00
2022-12-14T08:53:54.869Z,0.00
2022-12-14T08:56:24.973Z,0.00
2022-12-14T08:58:52.770Z,0.10
2022-12-14T09:01:25.767Z,0.10
2022-12-14T09:03:56.908Z,0.20
2022-12-14T09:06:27.891Z,0.20
2022-12-14T09:08:55.594Z,0.20
2022-12-14T09:11:23.003Z,0.20
2022-12-14T09:13:54.136Z,0.20
2022-12-14T09:16:21.981Z,0.30
2022-12-14T09:18:49.421Z,0.30
2022-12-14T09:21:16.516Z,0.30
2022-12-14T09:23:44.566Z,0.30
2022-12-14T09:26:20.687Z,0.40
2022-12-14T09:28:55.577Z,0.40
2022-12-14T09:31:25.254Z,0.40
2022-12-14T09:33:51.987Z,0.40
2022-12-14T09:36:23.708Z,0.50
2022-12-14T09:38:52.440Z,0.30
2022-12-14T09:41:30.190Z,0.30
2022-12-14T09:44:17.917Z,0.40
2022-12-14T09:46:48.348Z,0.40
2022-12-14T09:49:29.653Z,0.40
2022-12-14T09:52:00.039Z,0.50
2022-12-14T09:54:29.938Z,0.50
2022-12-14T09:57:01.113Z,0.40
2022-12-14T09:59:30.492Z,0.40
2022-12-14T10:02:30.835Z,0.50
2022-12-14T10:05:24.838Z,0.60
2022-12-14T10:08:16.886Z,0.90
2022-12-14T10:10:55.967Z,0.90
2022-12-14T10:13:42.145Z,1.00
2022-12-14T10:16:31.685Z,1.00
2022-12-14T10:19:16.933Z,0.90
2022-12-14T10:21:55.163Z,1.00
2022-12-14T10:24:31.099Z,1.10
2022-12-14T10:26:58.241Z,1.10
2022-12-14T10:29:46.407Z,1.10
2022-12-14T10:32:36.588Z,1.00
2022-12-14T10:35:15.672Z,1.00
2022-12-14T10:37:48.861Z,0.90
2022-12-14T10:40:33.209Z,1.00
2022-12-14T10:43:19.698Z,0.90
2022-12-14T10:46:10.065Z,1.00
2022-12-14T10:48:40.268Z,1.20
2022-12-14T10:51:21.605Z,1.20
2022-12-14T10:54:07.244Z,1.20
2022-12-14T10:56:35.825Z,1.30
2022-12-14T10:59:26.425Z,1.40
2022-12-14T11:02:07.274Z,1.50
2022-12-14T11:04:39.055Z,1.50
2022-12-14T11:07:15.061Z,1.40
2022-12-14T11:09:42.782Z,1.40
2022-12-14T11:12:18.209Z,1.50
2022-12-14T11:14:58.884Z,1.60
2022-12-14T11:17:35.072Z,1.60
2022-12-14T11:20:08.748Z,1.60
2022-12-14T11:22:46.122Z,1.60
2022-12-14T11:25:31.344Z,1.60
2022-12-14T11:28:21.528Z,1.60
2022-12-14T11:31:04.543Z,1.60
2022-12-14T11:33:53.046Z,1.60
2022-12-14T11:36:40.586Z,1.70
2022-12-14T11:39:13.224Z,1.80
2022-12-14T11:41:52.166Z,1.80
2022-12-14T11:44:18.752Z,1.70
2022-12-14T11:46:54.241Z,1.60
2022-12-14T11:49:23.366Z,1.70
2022-12-14T11:52:05.339Z,1.70
2022-12-14T11:54:49.972Z,1.60
2022-12-14T11:57:34.623Z,1.70
2022-12-14T12:00:21.980Z,1.80
2022-12-14T12:02:52.448Z,1.80
2022-12-14T12:05:22.405Z,1.70
2022-12-14T12:07:49.027Z,1.80
2022-12-14T12:10:41.800Z,1.90
2022-12-14T12:13:28.419Z,1.80
2022-12-14T12:16:10.361Z,1.90
2022-12-14T12:18:49.374Z,1.90
2022-12-14T12:21:21.384Z,2.00
2022-12-14T12:24:21.397Z,1.90
2022-12-14T12:26:55.343Z,1.80
2022-12-14T12:29:40.538Z,1.80
2022-12-14T12:32:24.806Z,1.80
2022-12-14T12:35:11.033Z,1.80
2022-12-14T12:38:03.085Z,1.80
2022-12-14T12:40:31.733Z,1.80
2022-12-14T12:43:23.689Z,1.80
2022-12-14T12:46:10.799Z,1.70
2022-12-14T12:48:49.556Z,1.70
2022-12-14T12:51:21.470Z,1.70
2022-12-14T12:53:54.387Z,1.80
2022-12-14T12:56:27.497Z,1.80
2022-12-14T12:58:55.039Z,1.80
2022-12-14T13:01:32.479Z,1.80
2022-12-14T13:04:05.261Z,1.80
2022-12-14T13:06:42.669Z,1.70
2022-12-14T13:09:38.217Z,1.80
2022-12-14T13:12:12.409Z,1.80
2022-12-14T13:14:43.643Z,1.80
2022-12-14T13:17:43.459Z,1.90
2022-12-14T13:20:27.079Z,2.00
2022-12-14T13:22:54.540Z,2.00
2022-12-14T13:25:51.505Z,2.00
2022-12-14T13:28:42.571Z,2.00
2022-12-14T13:31:26.498Z,2.00
2022-12-14T13:33:53.203Z,2.10
2022-12-14T13:36:55.323Z,2.00
2022-12-14T13:39:45.307Z,2.00
2022-12-14T13:42:28.397Z,2.10
2022-12-14T13:45:01.833Z,2.00
2022-12-14T13:47:54.044Z,2.00
2022-12-14T13:50:39.770Z,1.90
2022-12-14T13:53:12.084Z,2.00
2022-12-14T13:55:59.855Z,2.00
2022-12-14T13:58:47.639Z,2.10
2022-12-14T14:01:32.977Z,2.10
2022-12-14T14:04:14.796Z,2.20
2022-12-14T14:06:55.508Z,2.20
2022-12-14T14:09:31.352Z,2.20
2022-12-14T14:12:01.899Z,2.30
2022-12-14T14:14:53.468Z,2.30
2022-12-14T14:17:28.853Z,2.30
2022-12-14T14:19:57.419Z,2.20
2022-12-14T14:22:27.453Z,2.20
2022-12-14T14:25:09.451Z,2.20
2022-12-14T14:27:50.051Z,2.20
2022-12-14T14:30:36.415Z,2.20
2022-12-14T14:33:43.231Z,2.30
2022-12-14T14:35:50.270Z,2.30
2022-12-14T14:38:28.489Z,2.40
2022-12-14T14:41:16.217Z,2.50
2022-12-14T14:43:51.539Z,2.50
2022-12-14T14:46:22.829Z,2.50
2022-12-14T14:48:57.013Z,2.30
2022-12-14T14:51:26.350Z,2.40
2022-12-14T14:54:46.139Z,2.30
2022-12-14T14:57:53.301Z,2.20
2022-12-14T15:00:19.917Z,2.10
2022-12-14T15:02:46.894Z,2.20
2022-12-14T15:08:21.754Z,2.40
2022-12-14T15:10:50.412Z,2.30
2022-12-14T15:13:28.094Z,2.20
2022-12-14T15:15:56.470Z,2.30
2022-12-14T15:18:31.262Z,2.20
2022-12-14T15:21:01.093Z,2.30
2022-12-14T15:23:36.804Z,2.30
2022-12-14T15:26:16.357Z,2.30
2022-12-14T15:28:47.830Z,2.40
2022-12-14T15:31:14.833Z,2.40
2022-12-14T15:33:43.468Z,2.50
2022-12-14T15:36:18.026Z,2.50
2022-12-14T15:38:53.884Z,2.50
2022-12-14T15:41:23.072Z,2.40
2022-12-14T15:43:56.486Z,2.40
2022-12-14T15:46:33.733Z,2.40
2022-12-14T15:49:03.782Z,2.40
2022-12-14T15:51:40.012Z,2.30
2022-12-14T15:54:15.175Z,2.30
2022-12-14T15:56:45.205Z,2.30
2022-12-14T15:59:24.845Z,2.40
2022-12-14T16:02:07.281Z,2.50
2022-12-14T16:04:36.833Z,2.50
2022-12-14T16:07:12.337Z,2.50
2022-12-14T16:09:50.026Z,2.40
2022-12-14T16:12:24.880Z,2.40
2022-12-14T16:14:54.179Z,2.30
2022-12-14T16:17:26.406Z,2.30
2022-12-14T16:20:00.167Z,2.30
2022-12-14T16:22:29.578Z,2.40
2022-12-14T16:25:11.724Z,2.50
2022-12-14T16:27:42.428Z,2.50
2022-12-14T16:30:21.871Z,2.40
2022-12-14T16:32:52.564Z,2.40
2022-12-14T16:35:26.195Z,2.40
2022-12-14T16:37:55.789Z,2.50
2022-12-14T16:40:34.568Z,2.50
2022-12-14T16:43:02.392Z,2.50
2022-12-14T16:45:41.383Z,2.50
2022-12-14T16:48:16.093Z,2.60
2022-12-14T16:51:02.983Z,2.60
2022-12-14T16:53:30.295Z,2.50
2022-12-14T16:56:04.306Z,2.50
2022-12-14T16:58:31.101Z,2.60
2022-12-14T17:01:04.178Z,2.50
2022-12-14T17:03:31.825Z,2.50
2022-12-14T17:06:04.738Z,2.50
2022-12-14T17:08:33.491Z,2.40
2022-12-14T17:11:00.425Z,2.50
2022-12-14T17:13:27.401Z,2.50
2022-12-14T17:16:01.193Z,2.50
2022-12-14T17:18:31.976Z,2.60
2022-12-14T17:20:59.168Z,2.50
2022-12-14T17:23:25.990Z,2.40
2022-12-14T17:26:02.149Z,2.50
2022-12-14T17:28:30.791Z,2.50
2022-12-14T17:30:59.341Z,2.60
2022-12-14T17:33:28.132Z,2.60
2022-12-14T17:35:55.552Z,2.60
2022-12-14T17:38:23.084Z,2.60
2022-12-14T17:40:51.156Z,2.70
2022-12-14T17:43:22.044Z,2.70
2022-12-14T17:45:48.728Z,2.60
2022-12-14T17:48:17.050Z,2.50
2022-12-14T17:50:47.265Z,2.50
2022-12-14T17:53:15.482Z,2.60
2022-12-14T17:55:42.186Z,2.70
2022-12-14T17:58:10.854Z,2.70
2022-12-14T18:00:56.797Z,2.70
2022-12-14T18:03:23.666Z,2.70
2022-12-14T18:05:51.401Z,2.60
2022-12-14T18:08:22.223Z,2.70
2022-12-14T18:10:53.057Z,2.70
2022-12-14T18:13:19.744Z,2.80
2022-12-14T18:15:51.355Z,2.70
2022-12-14T18:18:23.794Z,2.60
2022-12-14T18:20:54.354Z,2.70
2022-12-14T18:23:21.714Z,2.60
2022-12-14T18:25:52.732Z,2.70
2022-12-14T18:28:19.686Z,2.70
2022-12-14T18:30:53.627Z,2.70
2022-12-14T18:33:22.637Z,2.70
2022-12-14T18:35:50.493Z,2.70
2022-12-14T18:38:17.212Z,2.70
2022-12-14T18:40:49.853Z,2.80
2022-12-14T18:43:23.497Z,2.80
2022-12-14T18:45:52.098Z,2.70
2022-12-14T18:48:19.245Z,2.70
2022-12-14T18:50:45.974Z,2.60
2022-12-14T18:53:19.293Z,2.60
2022-12-14T18:55:46.785Z,2.60
2022-12-14T18:58:19.096Z,2.50
2022-12-14T19:00:46.076Z,2.40
2022-12-14T19:03:15.019Z,2.50
2022-12-14T19:05:41.834Z,2.60
2022-12-14T19:08:09.963Z,2.60
2022-12-14T19:10:39.642Z,2.70
2022-12-14T19:13:06.224Z,2.80
2022-12-14T19:15:35.494Z,2.60
2022-12-14T19:18:02.210Z,2.50
2022-12-14T19:20:29.330Z,2.50
2022-12-14T19:22:56.509Z,2.40
2022-12-14T19:25:23.491Z,2.40
2022-12-14T19:30:39.118Z,2.40
2022-12-14T19:33:06.029Z,2.30
2022-12-14T19:35:32.909Z,2.20
2022-12-14T19:37:59.547Z,2.30
2022-12-14T19:40:26.487Z,2.30
2022-12-14T19:42:53.198Z,2.30
2022-12-14T19:45:19.965Z,2.30
2022-12-14T19:47:46.615Z,2.30
2022-12-14T19:50:15.091Z,2.30
2022-12-14T19:52:42.494Z,2.30
2022-12-14T19:55:10.354Z,2.30
2022-12-14T19:57:40.658Z,2.40
2022-12-14T20:00:08.261Z,2.40
2022-12-14T20:02:35.366Z,2.50
2022-12-14T20:05:02.348Z,2.60
2022-12-14T20:07:29.202Z,2.60
2022-12-14T20:09:55.878Z,2.70
2022-12-14T20:12:22.599Z,2.70
2022-12-14T20:14:49.364Z,2.70
2022-12-14T20:17:16.541Z,2.70
2022-12-14T20:19:43.218Z,2.70
2022-12-14T20:22:10.109Z,2.70
2022-12-14T20:24:36.987Z,2.70
2022-12-14T20:27:03.810Z,2.70
2022-12-14T20:29:30.507Z,2.60
2022-12-14T20:31:57.224Z,2.70
2022-12-14T20:34:24.170Z,2.70
2022-12-14T20:36:50.991Z,2.70
2022-12-14T20:39:17.603Z,2.80
2022-12-14T20:41:44.179Z,2.80
2022-12-14T20:44:11.963Z,2.70
2022-12-14T20:46:42.254Z,2.60
2022-12-14T20:49:14.707Z,2.70
2022-12-14T20:51:42.630Z,2.70
2022-12-14T20:54:12.718Z,2.70
2022-12-14T20:56:40.238Z,2.80
2022-12-14T20:59:08.105Z,2.80
2022-12-14T21:01:37.281Z,2.80
2022-12-14T21:04:04.198Z,2.80
2022-12-14T21:06:32.965Z,2.80
2022-12-14T21:09:05.518Z,2.80
2022-12-14T21:12:02.743Z,2.90
2022-12-14T21:14:43.407Z,2.80
2022-12-14T21:17:10.954Z,2.80
2022-12-14T21:19:37.619Z,2.80
2022-12-14T21:22:06.091Z,2.90
2022-12-14T21:27:27.890Z,2.90
2022-12-14T21:29:54.556Z,2.90
2022-12-14T21:32:22.173Z,2.80
2022-12-14T21:34:49.166Z,2.90
2022-12-14T21:37:15.993Z,2.90
2022-12-14T21:39:46.309Z,2.90
2022-12-14T21:42:20.429Z,2.90
2022-12-14T21:44:48.823Z,2.90
2022-12-14T21:47:18.566Z,2.80
2022-12-14T21:49:46.143Z,2.80
2022-12-14T21:52:19.526Z,2.80
2022-12-14T21:54:46.207Z,2.70
2022-12-14T21:57:38.924Z,2.80
2022-12-14T22:00:08.233Z,2.80
2022-12-14T22:02:36.101Z,2.80
2022-12-14T22:05:02.856Z,2.80
2022-12-14T22:07:32.640Z,2.90
2022-12-14T22:09:59.267Z,2.90
2022-12-14T22:12:26.410Z,2.80
2022-12-14T22:14:53.189Z,2.80
2022-12-14T22:17:19.834Z,2.90
2022-12-14T22:19:46.493Z,2.70
2022-12-14T22:22:15.252Z,2.70
2022-12-14T22:24:42.099Z,2.70
2022-12-14T22:27:12.566Z,2.70
2022-12-14T22:29:39.436Z,2.70
2022-12-14T22:32:06.817Z,2.70
2022-12-14T22:34:33.641Z,2.80
2022-12-14T22:37:00.211Z,2.90
2022-12-14T22:39:26.835Z,2.90
2022-12-14T22:41:53.467Z,2.90
2022-12-14T22:44:20.117Z,2.80
2022-12-14T22:46:46.766Z,2.90
2022-12-14T22:49:17.570Z,2.90
2022-12-14T22:51:45.321Z,3.00
2022-12-14T22:54:27.493Z,2.90
2022-12-14T22:57:02.334Z,3.00
2022-12-14T22:59:46.329Z,3.00
2022-12-14T23:02:13.083Z,3.10
2022-12-14T23:04:40.006Z,3.00
2022-12-14T23:07:07.040Z,3.10
2022-12-14T23:09:52.606Z,3.10
2022-12-14T23:12:37.871Z,3.10
2022-12-14T23:15:23.845Z,3.10
2022-12-14T23:18:12.447Z,3.10
2022-12-14T23:20:57.856Z,3.00
2022-12-14T23:23:43.183Z,3.00
2022-12-14T23:26:28.671Z,3.10
2022-12-14T23:29:13.979Z,3.10
2022-12-14T23:31:59.368Z,3.00
2022-12-14T23:34:44.812Z,3.00
2022-12-14T23:37:33.515Z,2.90
2022-12-14T23:40:19.050Z,2.90
2022-12-14T23:43:04.439Z,2.90
2022-12-14T23:45:49.984Z,2.90
2022-12-14T23:48:35.371Z,2.90
2022-12-14T23:51:20.787Z,2.90
2022-12-14T23:54:06.263Z,2.90
2022-12-14T23:56:52.598Z,2.90
2022-12-14T23:59:38.009Z,3.00
